sensor_id;sensor_type;location;lat;lon;timestamp;P1;durP1;ratioP1;P2;durP2;ratioP2
14722;SDS011;7452;55.594;12.986;2023-04-25T00:01:58;5.90;;;4.40;;
14722;SDS011;7452;55.594;12.986;2023-04-25T00:04:26;7.13;;;4.27;;
14722;SDS011;7452;55.594;12.986;2023-04-25T00:06:54;7.90;;;4.70;;
14722;SDS011;7452;55.594;12.986;2023-04-25T00:09:22;5.47;;;4.23;;
14722;SDS011;7452;55.594;12.986;2023-04-25T00:11:49;6.90;;;4.63;;
14722;SDS011;7452;55.594;12.986;2023-04-25T00:14:16;6.03;;;4.30;;
14722;SDS011;7452;55.594;12.986;2023-04-25T00:16:43;7.67;;;4.27;;
14722;SDS011;7452;55.594;12.986;2023-04-25T00:19:09;4.80;;;3.70;;
14722;SDS011;7452;55.594;12.986;2023-04-25T00:21:39;9.03;;;3.97;;
14722;SDS011;7452;55.594;12.986;2023-04-25T00:24:06;5.17;;;3.10;;
14722;SDS011;7452;55.594;12.986;2023-04-25T00:26:33;2.93;;;1.97;;
14722;SDS011;7452;55.594;12.986;2023-04-25T00:29:01;3.90;;;1.53;;
14722;SDS011;7452;55.594;12.986;2023-04-25T00:31:28;2.93;;;1.60;;
14722;SDS011;7452;55.594;12.986;2023-04-25T00:33:55;3.90;;;1.90;;
14722;SDS011;7452;55.594;12.986;2023-04-25T00:36:22;3.40;;;1.83;;
14722;SDS011;7452;55.594;12.986;2023-04-25T00:38:50;3.63;;;2.77;;
14722;SDS011;7452;55.594;12.986;2023-04-25T00:41:18;5.37;;;2.67;;
14722;SDS011;7452;55.594;12.986;2023-04-25T00:43:46;3.50;;;3.20;;
14722;SDS011;7452;55.594;12.986;2023-04-25T00:46:14;4.33;;;2.90;;
14722;SDS011;7452;55.594;12.986;2023-04-25T00:48:41;5.57;;;3.47;;
14722;SDS011;7452;55.594;12.986;2023-04-25T00:51:08;5.90;;;3.80;;
14722;SDS011;7452;55.594;12.986;2023-04-25T00:53:38;3.87;;;3.00;;
14722;SDS011;7452;55.594;12.986;2023-04-25T00:56:07;5.57;;;3.70;;
14722;SDS011;7452;55.594;12.986;2023-04-25T00:58:34;4.93;;;3.30;;
14722;SDS011;7452;55.594;12.986;2023-04-25T01:01:02;5.93;;;2.97;;
14722;SDS011;7452;55.594;12.986;2023-04-25T01:03:29;4.60;;;2.97;;
14722;SDS011;7452;55.594;12.986;2023-04-25T01:06:00;3.13;;;2.90;;
14722;SDS011;7452;55.594;12.986;2023-04-25T01:08:28;7.17;;;3.43;;
14722;SDS011;7452;55.594;12.986;2023-04-25T01:10:55;7.23;;;3.90;;
14722;SDS011;7452;55.594;12.986;2023-04-25T01:13:23;4.03;;;3.10;;
14722;SDS011;7452;55.594;12.986;2023-04-25T01:15:50;5.77;;;3.27;;
14722;SDS011;7452;55.594;12.986;2023-04-25T01:18:18;6.10;;;3.30;;
14722;SDS011;7452;55.594;12.986;2023-04-25T01:20:46;4.93;;;3.20;;
14722;SDS011;7452;55.594;12.986;2023-04-25T01:23:14;3.50;;;2.93;;
14722;SDS011;7452;55.594;12.986;2023-04-25T01:25:41;6.10;;;3.10;;
14722;SDS011;7452;55.594;12.986;2023-04-25T01:28:08;4.07;;;2.80;;
14722;SDS011;7452;55.594;12.986;2023-04-25T01:30:35;5.87;;;3.23;;
14722;SDS011;7452;55.594;12.986;2023-04-25T01:33:02;4.73;;;2.77;;
14722;SDS011;7452;55.594;12.986;2023-04-25T01:35:30;7.47;;;3.00;;
14722;SDS011;7452;55.594;12.986;2023-04-25T01:37:57;5.40;;;2.97;;
14722;SDS011;7452;55.594;12.986;2023-04-25T01:40:26;3.93;;;2.80;;
14722;SDS011;7452;55.594;12.986;2023-04-25T01:42:54;6.27;;;3.00;;
14722;SDS011;7452;55.594;12.986;2023-04-25T01:45:21;5.30;;;2.67;;
14722;SDS011;7452;55.594;12.986;2023-04-25T01:47:48;2.53;;;2.00;;
14722;SDS011;7452;55.594;12.986;2023-04-25T01:50:15;3.63;;;2.40;;
14722;SDS011;7452;55.594;12.986;2023-04-25T01:52:44;5.03;;;2.50;;
14722;SDS011;7452;55.594;12.986;2023-04-25T01:55:11;4.37;;;2.13;;
14722;SDS011;7452;55.594;12.986;2023-04-25T01:57:39;4.50;;;2.17;;
14722;SDS011;7452;55.594;12.986;2023-04-25T02:00:06;2.33;;;1.80;;
14722;SDS011;7452;55.594;12.986;2023-04-25T02:02:35;4.33;;;2.47;;
14722;SDS011;7452;55.594;12.986;2023-04-25T02:05:02;2.57;;;2.30;;
14722;SDS011;7452;55.594;12.986;2023-04-25T02:07:29;4.30;;;2.47;;
14722;SDS011;7452;55.594;12.986;2023-04-25T02:09:56;4.23;;;2.03;;
14722;SDS011;7452;55.594;12.986;2023-04-25T02:12:23;2.40;;;2.20;;
14722;SDS011;7452;55.594;12.986;2023-04-25T02:14:52;3.37;;;2.10;;
14722;SDS011;7452;55.594;12.986;2023-04-25T02:17:20;3.67;;;2.00;;
14722;SDS011;7452;55.594;12.986;2023-04-25T02:19:47;2.47;;;1.90;;
14722;SDS011;7452;55.594;12.986;2023-04-25T02:22:13;4.43;;;2.40;;
14722;SDS011;7452;55.594;12.986;2023-04-25T02:24:41;3.83;;;2.57;;
14722;SDS011;7452;55.594;12.986;2023-04-25T02:27:07;3.97;;;2.30;;
14722;SDS011;7452;55.594;12.986;2023-04-25T02:29:35;6.73;;;3.10;;
14722;SDS011;7452;55.594;12.986;2023-04-25T02:32:04;7.60;;;3.13;;
14722;SDS011;7452;55.594;12.986;2023-04-25T02:34:31;5.60;;;2.83;;
14722;SDS011;7452;55.594;12.986;2023-04-25T02:36:58;7.47;;;3.50;;
14722;SDS011;7452;55.594;12.986;2023-04-25T02:39:25;6.93;;;3.80;;
14722;SDS011;7452;55.594;12.986;2023-04-25T02:41:52;5.50;;;3.50;;
14722;SDS011;7452;55.594;12.986;2023-04-25T02:44:19;13.53;;;4.60;;
14722;SDS011;7452;55.594;12.986;2023-04-25T02:46:46;7.80;;;4.60;;
14722;SDS011;7452;55.594;12.986;2023-04-25T02:49:14;7.93;;;4.87;;
14722;SDS011;7452;55.594;12.986;2023-04-25T02:51:41;5.10;;;4.13;;
14722;SDS011;7452;55.594;12.986;2023-04-25T02:54:08;8.33;;;4.27;;
14722;SDS011;7452;55.594;12.986;2023-04-25T02:56:34;6.57;;;4.20;;
14722;SDS011;7452;55.594;12.986;2023-04-25T02:59:01;9.63;;;4.33;;
14722;SDS011;7452;55.594;12.986;2023-04-25T03:01:28;7.23;;;5.00;;
14722;SDS011;7452;55.594;12.986;2023-04-25T03:03:55;9.67;;;4.93;;
14722;SDS011;7452;55.594;12.986;2023-04-25T03:06:23;10.80;;;5.00;;
14722;SDS011;7452;55.594;12.986;2023-04-25T03:08:50;11.53;;;5.23;;
14722;SDS011;7452;55.594;12.986;2023-04-25T03:11:17;10.30;;;5.13;;
14722;SDS011;7452;55.594;12.986;2023-04-25T03:13:45;12.67;;;6.00;;
14722;SDS011;7452;55.594;12.986;2023-04-25T03:16:12;11.97;;;6.07;;
14722;SDS011;7452;55.594;12.986;2023-04-25T03:18:38;9.30;;;5.73;;
14722;SDS011;7452;55.594;12.986;2023-04-25T03:21:05;12.07;;;5.80;;
14722;SDS011;7452;55.594;12.986;2023-04-25T03:23:34;11.63;;;5.90;;
14722;SDS011;7452;55.594;12.986;2023-04-25T03:26:00;12.77;;;4.90;;
14722;SDS011;7452;55.594;12.986;2023-04-25T03:28:28;12.73;;;5.13;;
14722;SDS011;7452;55.594;12.986;2023-04-25T03:30:55;11.70;;;4.87;;
14722;SDS011;7452;55.594;12.986;2023-04-25T03:33:21;9.77;;;4.77;;
14722;SDS011;7452;55.594;12.986;2023-04-25T03:35:48;12.77;;;5.60;;
14722;SDS011;7452;55.594;12.986;2023-04-25T03:38:16;8.77;;;4.57;;
14722;SDS011;7452;55.594;12.986;2023-04-25T03:40:44;9.73;;;4.80;;
14722;SDS011;7452;55.594;12.986;2023-04-25T03:43:11;8.57;;;5.10;;
14722;SDS011;7452;55.594;12.986;2023-04-25T03:45:38;12.17;;;5.47;;
14722;SDS011;7452;55.594;12.986;2023-04-25T03:48:05;9.73;;;4.60;;
14722;SDS011;7452;55.594;12.986;2023-04-25T03:50:32;12.07;;;4.53;;
14722;SDS011;7452;55.594;12.986;2023-04-25T03:52:59;7.93;;;4.70;;
14722;SDS011;7452;55.594;12.986;2023-04-25T03:55:26;8.83;;;4.83;;
14722;SDS011;7452;55.594;12.986;2023-04-25T03:57:54;6.60;;;4.00;;
14722;SDS011;7452;55.594;12.986;2023-04-25T04:00:21;9.30;;;4.80;;
14722;SDS011;7452;55.594;12.986;2023-04-25T04:02:48;9.13;;;4.63;;
14722;SDS011;7452;55.594;12.986;2023-04-25T04:05:15;8.27;;;4.27;;
14722;SDS011;7452;55.594;12.986;2023-04-25T04:07:42;6.10;;;4.30;;
14722;SDS011;7452;55.594;12.986;2023-04-25T04:10:09;14.67;;;4.80;;
14722;SDS011;7452;55.594;12.986;2023-04-25T04:12:36;10.00;;;4.20;;
14722;SDS011;7452;55.594;12.986;2023-04-25T04:15:06;12.30;;;4.20;;
14722;SDS011;7452;55.594;12.986;2023-04-25T04:17:33;8.90;;;4.07;;
14722;SDS011;7452;55.594;12.986;2023-04-25T04:20:00;14.27;;;3.97;;
14722;SDS011;7452;55.594;12.986;2023-04-25T04:22:28;8.03;;;4.27;;
14722;SDS011;7452;55.594;12.986;2023-04-25T04:24:55;11.67;;;4.03;;
14722;SDS011;7452;55.594;12.986;2023-04-25T04:27:22;9.47;;;4.10;;
14722;SDS011;7452;55.594;12.986;2023-04-25T04:29:49;8.03;;;3.60;;
14722;SDS011;7452;55.594;12.986;2023-04-25T04:32:19;13.17;;;4.60;;
14722;SDS011;7452;55.594;12.986;2023-04-25T04:34:48;10.67;;;3.93;;
14722;SDS011;7452;55.594;12.986;2023-04-25T04:37:15;9.73;;;4.30;;
14722;SDS011;7452;55.594;12.986;2023-04-25T04:39:42;9.97;;;4.00;;
14722;SDS011;7452;55.594;12.986;2023-04-25T04:42:09;10.77;;;4.20;;
14722;SDS011;7452;55.594;12.986;2023-04-25T04:44:36;15.17;;;4.10;;
14722;SDS011;7452;55.594;12.986;2023-04-25T04:47:04;8.93;;;3.90;;
14722;SDS011;7452;55.594;12.986;2023-04-25T04:49:33;13.07;;;3.90;;
14722;SDS011;7452;55.594;12.986;2023-04-25T04:52:00;7.50;;;3.57;;
14722;SDS011;7452;55.594;12.986;2023-04-25T04:54:26;14.53;;;4.20;;
14722;SDS011;7452;55.594;12.986;2023-04-25T04:56:53;11.83;;;3.63;;
14722;SDS011;7452;55.594;12.986;2023-04-25T04:59:21;12.33;;;4.13;;
14722;SDS011;7452;55.594;12.986;2023-04-25T05:01:48;10.37;;;3.47;;
14722;SDS011;7452;55.594;12.986;2023-04-25T05:04:15;15.60;;;3.63;;
14722;SDS011;7452;55.594;12.986;2023-04-25T05:06:43;9.20;;;3.20;;
14722;SDS011;7452;55.594;12.986;2023-04-25T05:09:10;12.80;;;4.07;;
14722;SDS011;7452;55.594;12.986;2023-04-25T05:11:36;10.73;;;3.57;;
14722;SDS011;7452;55.594;12.986;2023-04-25T05:14:04;9.43;;;3.90;;
14722;SDS011;7452;55.594;12.986;2023-04-25T05:16:30;9.93;;;3.57;;
14722;SDS011;7452;55.594;12.986;2023-04-25T05:18:57;8.63;;;3.03;;
14722;SDS011;7452;55.594;12.986;2023-04-25T05:21:24;10.20;;;3.67;;
14722;SDS011;7452;55.594;12.986;2023-04-25T05:23:53;12.00;;;3.40;;
14722;SDS011;7452;55.594;12.986;2023-04-25T05:26:20;10.50;;;3.27;;
14722;SDS011;7452;55.594;12.986;2023-04-25T05:28:47;9.40;;;3.60;;
14722;SDS011;7452;55.594;12.986;2023-04-25T05:31:16;11.50;;;3.23;;
14722;SDS011;7452;55.594;12.986;2023-04-25T05:33:43;9.50;;;3.57;;
14722;SDS011;7452;55.594;12.986;2023-04-25T05:36:09;13.23;;;4.63;;
14722;SDS011;7452;55.594;12.986;2023-04-25T05:38:36;10.83;;;3.70;;
14722;SDS011;7452;55.594;12.986;2023-04-25T05:41:04;12.50;;;4.10;;
14722;SDS011;7452;55.594;12.986;2023-04-25T05:43:32;9.87;;;3.80;;
14722;SDS011;7452;55.594;12.986;2023-04-25T05:45:59;14.43;;;4.20;;
14722;SDS011;7452;55.594;12.986;2023-04-25T05:48:26;11.43;;;3.70;;
14722;SDS011;7452;55.594;12.986;2023-04-25T05:50:53;11.90;;;4.30;;
14722;SDS011;7452;55.594;12.986;2023-04-25T05:53:20;11.37;;;3.67;;
14722;SDS011;7452;55.594;12.986;2023-04-25T05:55:48;10.80;;;4.53;;
14722;SDS011;7452;55.594;12.986;2023-04-25T05:58:16;12.43;;;4.03;;
14722;SDS011;7452;55.594;12.986;2023-04-25T06:00:43;12.73;;;3.90;;
14722;SDS011;7452;55.594;12.986;2023-04-25T06:03:09;11.63;;;4.87;;
14722;SDS011;7452;55.594;12.986;2023-04-25T06:05:38;10.70;;;4.10;;
14722;SDS011;7452;55.594;12.986;2023-04-25T06:08:05;9.77;;;3.80;;
14722;SDS011;7452;55.594;12.986;2023-04-25T06:10:32;15.43;;;4.50;;
14722;SDS011;7452;55.594;12.986;2023-04-25T06:12:59;12.63;;;4.03;;
14722;SDS011;7452;55.594;12.986;2023-04-25T06:15:27;8.33;;;3.93;;
14722;SDS011;7452;55.594;12.986;2023-04-25T06:17:55;12.33;;;4.53;;
14722;SDS011;7452;55.594;12.986;2023-04-25T06:20:22;14.93;;;4.67;;
14722;SDS011;7452;55.594;12.986;2023-04-25T06:22:49;13.47;;;4.27;;
14722;SDS011;7452;55.594;12.986;2023-04-25T06:25:16;13.97;;;4.07;;
14722;SDS011;7452;55.594;12.986;2023-04-25T06:27:43;12.83;;;3.70;;
14722;SDS011;7452;55.594;12.986;2023-04-25T06:30:10;16.03;;;4.17;;
14722;SDS011;7452;55.594;12.986;2023-04-25T06:32:39;17.73;;;4.90;;
14722;SDS011;7452;55.594;12.986;2023-04-25T06:35:06;12.43;;;3.90;;
14722;SDS011;7452;55.594;12.986;2023-04-25T06:37:33;13.10;;;4.17;;
14722;SDS011;7452;55.594;12.986;2023-04-25T06:40:00;14.20;;;4.40;;
14722;SDS011;7452;55.594;12.986;2023-04-25T06:42:27;14.27;;;4.97;;
14722;SDS011;7452;55.594;12.986;2023-04-25T06:44:54;15.17;;;4.40;;
14722;SDS011;7452;55.594;12.986;2023-04-25T06:47:21;14.27;;;4.97;;
14722;SDS011;7452;55.594;12.986;2023-04-25T06:49:49;12.07;;;4.50;;
14722;SDS011;7452;55.594;12.986;2023-04-25T06:52:16;13.90;;;4.20;;
14722;SDS011;7452;55.594;12.986;2023-04-25T06:54:43;15.90;;;4.77;;
14722;SDS011;7452;55.594;12.986;2023-04-25T06:57:10;18.53;;;5.03;;
14722;SDS011;7452;55.594;12.986;2023-04-25T06:59:37;18.87;;;4.60;;
14722;SDS011;7452;55.594;12.986;2023-04-25T07:02:04;15.80;;;5.20;;
14722;SDS011;7452;55.594;12.986;2023-04-25T07:04:31;15.63;;;4.57;;
14722;SDS011;7452;55.594;12.986;2023-04-25T07:07:00;14.13;;;4.73;;
14722;SDS011;7452;55.594;12.986;2023-04-25T07:09:27;12.27;;;4.03;;
14722;SDS011;7452;55.594;12.986;2023-04-25T07:11:54;19.83;;;5.20;;
14722;SDS011;7452;55.594;12.986;2023-04-25T07:14:21;16.90;;;4.77;;
14722;SDS011;7452;55.594;12.986;2023-04-25T07:16:49;16.00;;;5.33;;
14722;SDS011;7452;55.594;12.986;2023-04-25T07:19:15;15.77;;;5.60;;
14722;SDS011;7452;55.594;12.986;2023-04-25T07:21:42;21.40;;;5.20;;
14722;SDS011;7452;55.594;12.986;2023-04-25T07:24:11;19.40;;;5.10;;
14722;SDS011;7452;55.594;12.986;2023-04-25T07:26:38;14.50;;;5.50;;
14722;SDS011;7452;55.594;12.986;2023-04-25T07:29:05;12.03;;;5.00;;
14722;SDS011;7452;55.594;12.986;2023-04-25T07:31:32;20.07;;;5.70;;
14722;SDS011;7452;55.594;12.986;2023-04-25T07:33:59;14.37;;;5.30;;
14722;SDS011;7452;55.594;12.986;2023-04-25T07:36:26;17.83;;;5.07;;
14722;SDS011;7452;55.594;12.986;2023-04-25T07:38:53;15.37;;;5.27;;
14722;SDS011;7452;55.594;12.986;2023-04-25T07:41:21;18.13;;;5.10;;
14722;SDS011;7452;55.594;12.986;2023-04-25T07:43:48;18.47;;;6.30;;
14722;SDS011;7452;55.594;12.986;2023-04-25T07:46:15;21.47;;;6.20;;
14722;SDS011;7452;55.594;12.986;2023-04-25T07:48:41;15.83;;;6.17;;
14722;SDS011;7452;55.594;12.986;2023-04-25T07:51:08;15.03;;;5.17;;
14722;SDS011;7452;55.594;12.986;2023-04-25T07:53:38;17.40;;;5.37;;
14722;SDS011;7452;55.594;12.986;2023-04-25T07:56:05;16.37;;;5.47;;
14722;SDS011;7452;55.594;12.986;2023-04-25T07:58:34;21.17;;;5.70;;
14722;SDS011;7452;55.594;12.986;2023-04-25T08:01:01;16.73;;;5.87;;
14722;SDS011;7452;55.594;12.986;2023-04-25T08:03:28;21.13;;;6.63;;
14722;SDS011;7452;55.594;12.986;2023-04-25T08:05:55;21.53;;;5.67;;
14722;SDS011;7452;55.594;12.986;2023-04-25T08:08:22;21.40;;;6.23;;
14722;SDS011;7452;55.594;12.986;2023-04-25T08:10:48;18.50;;;6.63;;
14722;SDS011;7452;55.594;12.986;2023-04-25T08:13:15;20.13;;;6.13;;
14722;SDS011;7452;55.594;12.986;2023-04-25T08:15:43;19.43;;;5.97;;
14722;SDS011;7452;55.594;12.986;2023-04-25T08:18:10;25.80;;;6.77;;
14722;SDS011;7452;55.594;12.986;2023-04-25T08:20:37;21.13;;;6.67;;
14722;SDS011;7452;55.594;12.986;2023-04-25T08:23:05;18.40;;;6.30;;
14722;SDS011;7452;55.594;12.986;2023-04-25T08:25:32;17.30;;;6.50;;
14722;SDS011;7452;55.594;12.986;2023-04-25T08:27:59;17.53;;;6.23;;
14722;SDS011;7452;55.594;12.986;2023-04-25T08:30:28;21.83;;;6.17;;
14722;SDS011;7452;55.594;12.986;2023-04-25T08:32:56;19.63;;;6.80;;
14722;SDS011;7452;55.594;12.986;2023-04-25T08:35:23;22.77;;;6.37;;
14722;SDS011;7452;55.594;12.986;2023-04-25T08:37:49;24.57;;;6.30;;
14722;SDS011;7452;55.594;12.986;2023-04-25T08:40:16;14.27;;;6.80;;
14722;SDS011;7452;55.594;12.986;2023-04-25T08:42:51;16.97;;;6.07;;
14722;SDS011;7452;55.594;12.986;2023-04-25T08:45:19;24.57;;;6.50;;
14722;SDS011;7452;55.594;12.986;2023-04-25T08:47:46;20.70;;;6.60;;
14722;SDS011;7452;55.594;12.986;2023-04-25T08:50:17;18.60;;;6.63;;
14722;SDS011;7452;55.594;12.986;2023-04-25T08:52:46;27.07;;;6.70;;
14722;SDS011;7452;55.594;12.986;2023-04-25T08:55:14;16.10;;;6.40;;
14722;SDS011;7452;55.594;12.986;2023-04-25T08:57:42;21.87;;;6.37;;
14722;SDS011;7452;55.594;12.986;2023-04-25T09:00:09;16.70;;;5.67;;
14722;SDS011;7452;55.594;12.986;2023-04-25T09:02:37;23.10;;;5.83;;
14722;SDS011;7452;55.594;12.986;2023-04-25T09:05:06;19.80;;;5.43;;
14722;SDS011;7452;55.594;12.986;2023-04-25T09:07:36;15.27;;;4.57;;
14722;SDS011;7452;55.594;12.986;2023-04-25T09:10:03;18.03;;;5.57;;
14722;SDS011;7452;55.594;12.986;2023-04-25T09:12:30;15.43;;;4.43;;
14722;SDS011;7452;55.594;12.986;2023-04-25T09:15:02;19.63;;;5.37;;
14722;SDS011;7452;55.594;12.986;2023-04-25T09:17:30;12.57;;;4.10;;
14722;SDS011;7452;55.594;12.986;2023-04-25T09:20:04;18.37;;;5.13;;
14722;SDS011;7452;55.594;12.986;2023-04-25T09:22:33;22.90;;;5.03;;
14722;SDS011;7452;55.594;12.986;2023-04-25T09:25:03;13.43;;;5.03;;
14722;SDS011;7452;55.594;12.986;2023-04-25T09:27:34;11.33;;;4.40;;
14722;SDS011;7452;55.594;12.986;2023-04-25T09:30:01;15.47;;;4.43;;
14722;SDS011;7452;55.594;12.986;2023-04-25T09:32:29;16.30;;;4.73;;
14722;SDS011;7452;55.594;12.986;2023-04-25T09:34:57;14.10;;;4.20;;
14722;SDS011;7452;55.594;12.986;2023-04-25T09:37:24;14.97;;;4.57;;
14722;SDS011;7452;55.594;12.986;2023-04-25T09:39:54;12.63;;;4.10;;
14722;SDS011;7452;55.594;12.986;2023-04-25T09:42:24;14.90;;;4.30;;
14722;SDS011;7452;55.594;12.986;2023-04-25T09:44:52;18.97;;;4.67;;
14722;SDS011;7452;55.594;12.986;2023-04-25T09:47:20;14.87;;;4.93;;
14722;SDS011;7452;55.594;12.986;2023-04-25T09:49:49;18.90;;;4.67;;
14722;SDS011;7452;55.594;12.986;2023-04-25T09:52:18;11.97;;;4.23;;
14722;SDS011;7452;55.594;12.986;2023-04-25T09:54:46;17.60;;;4.93;;
14722;SDS011;7452;55.594;12.986;2023-04-25T09:57:16;19.37;;;4.70;;
14722;SDS011;7452;55.594;12.986;2023-04-25T09:59:44;20.37;;;5.03;;
14722;SDS011;7452;55.594;12.986;2023-04-25T10:02:12;16.70;;;4.27;;
14722;SDS011;7452;55.594;12.986;2023-04-25T10:04:40;15.37;;;4.43;;
14722;SDS011;7452;55.594;12.986;2023-04-25T10:07:08;11.00;;;4.23;;
14722;SDS011;7452;55.594;12.986;2023-04-25T10:09:36;14.73;;;3.97;;
14722;SDS011;7452;55.594;12.986;2023-04-25T10:12:05;11.47;;;4.13;;
14722;SDS011;7452;55.594;12.986;2023-04-25T10:14:35;16.07;;;4.43;;
14722;SDS011;7452;55.594;12.986;2023-04-25T10:17:02;16.23;;;4.17;;
14722;SDS011;7452;55.594;12.986;2023-04-25T10:19:29;14.73;;;4.30;;
14722;SDS011;7452;55.594;12.986;2023-04-25T10:21:58;9.87;;;4.07;;
14722;SDS011;7452;55.594;12.986;2023-04-25T10:24:32;13.47;;;3.50;;
14722;SDS011;7452;55.594;12.986;2023-04-25T10:26:59;15.73;;;4.27;;
14722;SDS011;7452;55.594;12.986;2023-04-25T10:29:27;12.53;;;4.03;;
14722;SDS011;7452;55.594;12.986;2023-04-25T10:31:55;13.73;;;4.40;;
14722;SDS011;7452;55.594;12.986;2023-04-25T10:34:24;16.97;;;3.50;;
14722;SDS011;7452;55.594;12.986;2023-04-25T10:37:03;16.97;;;3.93;;
14722;SDS011;7452;55.594;12.986;2023-04-25T10:39:30;12.50;;;3.93;;
14722;SDS011;7452;55.594;12.986;2023-04-25T10:41:59;15.50;;;4.70;;
14722;SDS011;7452;55.594;12.986;2023-04-25T10:44:29;13.40;;;4.60;;
14722;SDS011;7452;55.594;12.986;2023-04-25T10:46:58;11.73;;;4.70;;
14722;SDS011;7452;55.594;12.986;2023-04-25T10:49:30;14.37;;;4.50;;
14722;SDS011;7452;55.594;12.986;2023-04-25T10:52:17;16.57;;;4.93;;
14722;SDS011;7452;55.594;12.986;2023-04-25T10:54:48;17.40;;;5.07;;
14722;SDS011;7452;55.594;12.986;2023-04-25T10:57:27;11.23;;;3.90;;
14722;SDS011;7452;55.594;12.986;2023-04-25T11:00:02;13.43;;;4.47;;
14722;SDS011;7452;55.594;12.986;2023-04-25T11:02:38;12.43;;;4.17;;
14722;SDS011;7452;55.594;12.986;2023-04-25T11:05:08;16.00;;;4.43;;
14722;SDS011;7452;55.594;12.986;2023-04-25T11:07:37;11.80;;;3.77;;
14722;SDS011;7452;55.594;12.986;2023-04-25T11:10:09;16.40;;;3.87;;
14722;SDS011;7452;55.594;12.986;2023-04-25T11:12:36;14.50;;;3.53;;
14722;SDS011;7452;55.594;12.986;2023-04-25T11:15:03;9.83;;;3.37;;
14722;SDS011;7452;55.594;12.986;2023-04-25T11:17:32;13.73;;;3.80;;
14722;SDS011;7452;55.594;12.986;2023-04-25T11:20:00;8.00;;;3.50;;
14722;SDS011;7452;55.594;12.986;2023-04-25T11:22:31;9.00;;;3.20;;
14722;SDS011;7452;55.594;12.986;2023-04-25T11:25:04;17.43;;;3.90;;
14722;SDS011;7452;55.594;12.986;2023-04-25T11:27:31;14.70;;;3.50;;
14722;SDS011;7452;55.594;12.986;2023-04-25T11:29:58;10.33;;;3.70;;
14722;SDS011;7452;55.594;12.986;2023-04-25T11:32:25;15.53;;;3.53;;
14722;SDS011;7452;55.594;12.986;2023-04-25T11:34:52;13.83;;;4.13;;
14722;SDS011;7452;55.594;12.986;2023-04-25T11:37:21;13.70;;;3.50;;
14722;SDS011;7452;55.594;12.986;2023-04-25T11:39:48;11.43;;;4.03;;
14722;SDS011;7452;55.594;12.986;2023-04-25T11:42:15;9.63;;;3.07;;
14722;SDS011;7452;55.594;12.986;2023-04-25T11:44:42;11.00;;;2.90;;
14722;SDS011;7452;55.594;12.986;2023-04-25T11:47:09;6.90;;;2.97;;
14722;SDS011;7452;55.594;12.986;2023-04-25T11:49:36;9.13;;;3.60;;
14722;SDS011;7452;55.594;12.986;2023-04-25T11:52:03;9.90;;;4.10;;
14722;SDS011;7452;55.594;12.986;2023-04-25T11:54:36;12.07;;;4.23;;
14722;SDS011;7452;55.594;12.986;2023-04-25T11:57:03;11.53;;;4.00;;
14722;SDS011;7452;55.594;12.986;2023-04-25T11:59:30;9.63;;;4.17;;
14722;SDS011;7452;55.594;12.986;2023-04-25T12:01:57;8.07;;;3.87;;
14722;SDS011;7452;55.594;12.986;2023-04-25T12:04:26;8.70;;;3.63;;
14722;SDS011;7452;55.594;12.986;2023-04-25T12:06:57;9.43;;;3.73;;
14722;SDS011;7452;55.594;12.986;2023-04-25T12:09:29;10.90;;;3.53;;
14722;SDS011;7452;55.594;12.986;2023-04-25T12:11:58;10.17;;;3.00;;
14722;SDS011;7452;55.594;12.986;2023-04-25T12:14:28;12.87;;;3.27;;
14722;SDS011;7452;55.594;12.986;2023-04-25T12:16:56;10.47;;;3.63;;
14722;SDS011;7452;55.594;12.986;2023-04-25T12:19:24;11.30;;;3.07;;
14722;SDS011;7452;55.594;12.986;2023-04-25T12:21:52;11.07;;;3.63;;
14722;SDS011;7452;55.594;12.986;2023-04-25T12:24:21;15.57;;;3.90;;
14722;SDS011;7452;55.594;12.986;2023-04-25T12:26:50;11.73;;;3.83;;
14722;SDS011;7452;55.594;12.986;2023-04-25T12:29:21;12.70;;;4.20;;
14722;SDS011;7452;55.594;12.986;2023-04-25T12:31:50;10.67;;;4.00;;
14722;SDS011;7452;55.594;12.986;2023-04-25T12:34:17;15.83;;;4.00;;
14722;SDS011;7452;55.594;12.986;2023-04-25T12:36:44;9.67;;;3.27;;
14722;SDS011;7452;55.594;12.986;2023-04-25T12:39:15;10.07;;;3.97;;
14722;SDS011;7452;55.594;12.986;2023-04-25T12:41:42;12.57;;;3.57;;
14722;SDS011;7452;55.594;12.986;2023-04-25T12:44:09;10.60;;;2.97;;
14722;SDS011;7452;55.594;12.986;2023-04-25T12:46:38;9.03;;;3.00;;
14722;SDS011;7452;55.594;12.986;2023-04-25T12:49:05;12.83;;;2.90;;
14722;SDS011;7452;55.594;12.986;2023-04-25T12:51:33;9.63;;;2.97;;
14722;SDS011;7452;55.594;12.986;2023-04-25T12:54:00;8.70;;;2.70;;
14722;SDS011;7452;55.594;12.986;2023-04-25T12:56:27;6.60;;;2.70;;
14722;SDS011;7452;55.594;12.986;2023-04-25T12:58:54;9.77;;;3.70;;
14722;SDS011;7452;55.594;12.986;2023-04-25T13:01:22;10.20;;;3.47;;
14722;SDS011;7452;55.594;12.986;2023-04-25T13:03:51;10.10;;;3.50;;
14722;SDS011;7452;55.594;12.986;2023-04-25T13:06:18;11.60;;;4.40;;
14722;SDS011;7452;55.594;12.986;2023-04-25T13:08:46;10.93;;;3.50;;
14722;SDS011;7452;55.594;12.986;2023-04-25T13:11:13;8.27;;;3.10;;
14722;SDS011;7452;55.594;12.986;2023-04-25T13:13:40;11.13;;;3.27;;
14722;SDS011;7452;55.594;12.986;2023-04-25T13:16:08;7.93;;;2.87;;
14722;SDS011;7452;55.594;12.986;2023-04-25T13:18:35;9.37;;;2.53;;
14722;SDS011;7452;55.594;12.986;2023-04-25T13:21:04;7.73;;;2.50;;
14722;SDS011;7452;55.594;12.986;2023-04-25T13:23:31;7.80;;;2.73;;
14722;SDS011;7452;55.594;12.986;2023-04-25T13:25:58;10.03;;;2.80;;
14722;SDS011;7452;55.594;12.986;2023-04-25T13:28:26;6.83;;;2.53;;
14722;SDS011;7452;55.594;12.986;2023-04-25T13:30:53;6.43;;;2.70;;
14722;SDS011;7452;55.594;12.986;2023-04-25T13:33:20;7.03;;;2.70;;
14722;SDS011;7452;55.594;12.986;2023-04-25T13:35:48;7.77;;;3.00;;
14722;SDS011;7452;55.594;12.986;2023-04-25T13:38:20;7.40;;;3.03;;
14722;SDS011;7452;55.594;12.986;2023-04-25T13:40:47;7.93;;;2.63;;
14722;SDS011;7452;55.594;12.986;2023-04-25T13:43:15;10.87;;;3.30;;
14722;SDS011;7452;55.594;12.986;2023-04-25T13:45:42;11.80;;;2.93;;
14722;SDS011;7452;55.594;12.986;2023-04-25T13:48:09;7.27;;;3.00;;
14722;SDS011;7452;55.594;12.986;2023-04-25T13:50:35;6.37;;;2.70;;
14722;SDS011;7452;55.594;12.986;2023-04-25T13:53:02;8.63;;;3.13;;
14722;SDS011;7452;55.594;12.986;2023-04-25T13:55:31;8.83;;;3.13;;
14722;SDS011;7452;55.594;12.986;2023-04-25T13:57:58;7.27;;;3.47;;
14722;SDS011;7452;55.594;12.986;2023-04-25T14:00:32;11.23;;;3.10;;
14722;SDS011;7452;55.594;12.986;2023-04-25T14:02:59;9.07;;;3.20;;
14722;SDS011;7452;55.594;12.986;2023-04-25T14:05:29;9.33;;;2.90;;
14722;SDS011;7452;55.594;12.986;2023-04-25T14:07:56;11.57;;;2.90;;
14722;SDS011;7452;55.594;12.986;2023-04-25T14:10:23;9.00;;;3.10;;
14722;SDS011;7452;55.594;12.986;2023-04-25T14:12:51;9.73;;;2.97;;
14722;SDS011;7452;55.594;12.986;2023-04-25T14:15:18;11.67;;;3.50;;
14722;SDS011;7452;55.594;12.986;2023-04-25T14:17:45;6.70;;;3.23;;
14722;SDS011;7452;55.594;12.986;2023-04-25T14:20:13;6.67;;;2.73;;
14722;SDS011;7452;55.594;12.986;2023-04-25T14:22:40;8.07;;;2.60;;
14722;SDS011;7452;55.594;12.986;2023-04-25T14:25:08;10.33;;;3.57;;
14722;SDS011;7452;55.594;12.986;2023-04-25T14:27:35;7.93;;;2.70;;
14722;SDS011;7452;55.594;12.986;2023-04-25T14:30:04;7.43;;;2.40;;
14722;SDS011;7452;55.594;12.986;2023-04-25T14:32:34;5.03;;;2.43;;
14722;SDS011;7452;55.594;12.986;2023-04-25T14:35:01;7.73;;;2.87;;
14722;SDS011;7452;55.594;12.986;2023-04-25T14:37:28;7.10;;;3.00;;
14722;SDS011;7452;55.594;12.986;2023-04-25T14:39:54;8.30;;;3.13;;
14722;SDS011;7452;55.594;12.986;2023-04-25T14:42:21;9.67;;;2.90;;
14722;SDS011;7452;55.594;12.986;2023-04-25T14:44:48;10.70;;;3.70;;